createdAt,value
2023-03-26T00:03:12.970Z,79.68
2023-03-26T00:08:15.676Z,81.57
2023-03-26T00:13:16.997Z,82.37
2023-03-26T00:18:22.300Z,83.82
2023-03-26T00:23:24.106Z,85.66
2023-03-26T00:28:26.363Z,85.54
2023-03-26T00:33:27.981Z,85.63
2023-03-26T00:38:29.282Z,87.07
2023-03-26T00:43:32.903Z,88.18
2023-03-26T00:48:44.663Z,88.84
2023-03-26T00:53:47.918Z,89.36
2023-03-26T00:58:50.175Z,89.88
2023-03-26T01:04:08.343Z,89.68
2023-03-26T01:09:15.952Z,90.63
2023-03-26T01:14:25.242Z,90.51
2023-03-26T01:19:45.153Z,90.30
2023-03-26T01:24:52.866Z,91.45
2023-03-26T01:29:55.761Z,91.50
2023-03-26T01:35:13.112Z,91.61
2023-03-26T01:40:26.854Z,91.30
2023-03-26T01:45:30.406Z,91.08
2023-03-26T01:50:31.770Z,90.97
2023-03-26T01:55:49.510Z,91.42
2023-03-26T02:00:57.092Z,91.41
2023-03-26T02:06:03.473Z,90.07
2023-03-26T02:11:13.329Z,89.20
2023-03-26T02:16:16.552Z,88.78
2023-03-26T02:21:20.396Z,88.40
2023-03-26T02:26:21.867Z,88.01
2023-03-26T02:31:26.483Z,87.82
2023-03-26T02:36:28.491Z,87.89
2023-03-26T02:41:29.931Z,87.92
2023-03-26T02:46:32.515Z,87.30
2023-03-26T02:51:37.432Z,88.72
2023-03-26T02:56:38.850Z,89.33
2023-03-26T03:01:42.966Z,91.04
2023-03-26T03:06:47.124Z,90.43
2023-03-26T03:11:48.447Z,91.41
2023-03-26T03:16:49.854Z,97.10
2023-03-26T03:21:51.421Z,97.68
2023-03-26T03:26:56.367Z,99.06
2023-03-26T03:32:00.010Z,100.00
2023-03-26T03:37:01.405Z,100.00
2023-03-26T03:42:02.731Z,99.71
2023-03-26T03:47:04.041Z,100.00
2023-03-26T03:52:05.758Z,100.00
2023-03-26T03:57:07.164Z,100.00
2023-03-26T04:02:08.599Z,100.00
2023-03-26T04:07:10.149Z,100.00
2023-03-26T04:12:11.484Z,100.00
2023-03-26T04:17:15.874Z,100.00
2023-03-26T04:22:18.402Z,100.00
2023-03-26T04:27:25.464Z,100.00
2023-03-26T04:32:29.751Z,100.00
2023-03-26T04:37:34.461Z,100.00
2023-03-26T04:42:37.625Z,100.00
2023-03-26T04:47:39.600Z,100.00
2023-03-26T04:52:42.635Z,100.00
2023-03-26T04:57:48.354Z,100.00
2023-03-26T05:02:50.482Z,100.00
2023-03-26T05:07:52.246Z,100.00
2023-03-26T05:12:53.643Z,100.00
2023-03-26T05:17:55.713Z,100.00
2023-03-26T05:22:57.096Z,100.00
2023-03-26T05:27:58.420Z,100.00
2023-03-26T05:32:59.836Z,100.00
2023-03-26T05:38:01.266Z,100.00
2023-03-26T05:43:03.178Z,100.00
2023-03-26T05:48:04.622Z,100.00
2023-03-26T05:53:05.945Z,100.00
2023-03-26T05:58:07.375Z,100.00
2023-03-26T06:03:12.749Z,100.00
2023-03-26T06:08:14.316Z,100.00
2023-03-26T06:13:16.869Z,100.00
2023-03-26T06:18:19.532Z,100.00
2023-03-26T06:23:20.955Z,100.00
2023-03-26T06:28:22.495Z,100.00
2023-03-26T06:33:24.662Z,100.00
2023-03-26T06:38:26.057Z,100.00
2023-03-26T06:43:27.365Z,100.00
2023-03-26T06:48:28.770Z,100.00
2023-03-26T06:53:30.330Z,100.00
2023-03-26T06:58:31.688Z,100.00
2023-03-26T07:03:33.227Z,100.00
2023-03-26T07:08:34.588Z,100.00
2023-03-26T07:13:37.517Z,100.00
2023-03-26T07:18:38.933Z,100.00
2023-03-26T07:23:40.563Z,100.00
2023-03-26T07:29:03.988Z,100.00
2023-03-26T07:34:09.591Z,100.00
2023-03-26T07:39:20.282Z,100.00
2023-03-26T07:44:40.376Z,100.00
2023-03-26T07:49:43.333Z,100.00
2023-03-26T07:54:44.802Z,100.00
2023-03-26T07:59:57.421Z,100.00
2023-03-26T08:05:05.001Z,100.00
2023-03-26T08:10:38.004Z,100.00
2023-03-26T08:16:08.838Z,100.00
2023-03-26T08:21:14.107Z,100.00
2023-03-26T08:26:31.827Z,100.00
2023-03-26T08:31:35.034Z,100.00
2023-03-26T08:36:36.939Z,100.00
2023-03-26T08:41:57.092Z,100.00
2023-03-26T08:47:16.216Z,100.00
2023-03-26T08:52:21.446Z,100.00
2023-03-26T08:57:41.750Z,100.00
2023-03-26T09:02:51.838Z,100.00
2023-03-26T09:07:59.174Z,100.00
2023-03-26T09:13:20.819Z,100.00
2023-03-26T09:18:41.022Z,100.00
2023-03-26T09:23:57.870Z,100.00
2023-03-26T09:29:05.275Z,100.00
2023-03-26T09:34:16.053Z,100.00
2023-03-26T09:39:37.792Z,100.00
2023-03-26T09:44:58.015Z,100.00
2023-03-26T09:50:02.686Z,100.00
2023-03-26T09:55:19.611Z,100.00
2023-03-26T10:00:23.981Z,99.99
2023-03-26T10:05:39.066Z,98.50
2023-03-26T10:10:40.476Z,100.00
2023-03-26T10:15:50.780Z,100.00
2023-03-26T10:20:59.111Z,100.00
2023-03-26T10:26:04.349Z,100.00
2023-03-26T10:31:26.873Z,100.00
2023-03-26T10:36:34.257Z,100.00
2023-03-26T10:41:41.728Z,100.00
2023-03-26T10:47:01.894Z,100.00
2023-03-26T10:52:06.261Z,100.00
2023-03-26T10:57:17.034Z,100.00
2023-03-26T11:02:30.275Z,100.00
2023-03-26T11:07:43.735Z,100.00
2023-03-26T11:12:48.704Z,100.00
2023-03-26T11:17:50.056Z,100.00
2023-03-26T11:22:51.394Z,100.00
2023-03-26T11:27:55.940Z,100.00
2023-03-26T11:33:01.565Z,100.00
2023-03-26T11:38:07.558Z,100.00
2023-03-26T11:43:11.288Z,100.00
2023-03-26T11:48:17.624Z,100.00
2023-03-26T11:53:20.420Z,100.00
2023-03-26T11:58:29.834Z,100.00
2023-03-26T12:03:33.220Z,100.00
2023-03-26T12:08:38.316Z,100.00
2023-03-26T12:13:53.250Z,100.00
2023-03-26T12:19:18.729Z,100.00
2023-03-26T12:24:29.363Z,100.00
2023-03-26T12:29:34.568Z,100.00
2023-03-26T12:34:37.484Z,100.00
2023-03-26T12:40:07.250Z,100.00
2023-03-26T12:45:02.327Z,100.00
2023-03-26T12:50:03.936Z,100.00
2023-03-26T12:55:17.665Z,100.00
2023-03-26T13:00:27.701Z,100.00
2023-03-26T13:05:50.731Z,100.00
2023-03-26T13:11:01.733Z,100.00
2023-03-26T13:16:16.285Z,100.00
2023-03-26T13:21:20.627Z,100.00
2023-03-26T13:26:37.202Z,100.00
2023-03-26T13:31:53.305Z,100.00
2023-03-26T13:37:06.989Z,100.00
2023-03-26T13:42:08.483Z,100.00
2023-03-26T13:47:12.742Z,100.00
2023-03-26T13:52:26.469Z,100.00
2023-03-26T13:57:31.798Z,100.00
2023-03-26T14:02:35.854Z,100.00
2023-03-26T14:07:41.949Z,100.00
2023-03-26T14:12:52.291Z,100.00
2023-03-26T14:17:58.639Z,100.00
2023-03-26T14:23:16.345Z,100.00
2023-03-26T14:28:36.411Z,100.00
2023-03-26T14:33:38.518Z,100.00
2023-03-26T14:38:39.859Z,100.00
2023-03-26T14:43:52.505Z,100.00
2023-03-26T14:48:53.889Z,100.00
2023-03-26T14:53:59.078Z,100.00
2023-03-26T14:59:29.586Z,100.00
2023-03-26T15:04:47.162Z,100.00
2023-03-26T15:09:49.259Z,100.00
2023-03-26T15:15:02.764Z,100.00
2023-03-26T15:20:26.064Z,100.00
2023-03-26T15:25:50.378Z,100.00
2023-03-26T15:30:57.907Z,100.00
2023-03-26T15:35:59.286Z,100.00
2023-03-26T15:41:00.708Z,100.00
2023-03-26T15:46:11.125Z,100.00
2023-03-26T15:51:24.466Z,100.00
2023-03-26T15:56:32.877Z,100.00
2023-03-26T16:02:02.395Z,100.00
2023-03-26T16:07:09.498Z,100.00
2023-03-26T16:12:16.767Z,100.00
2023-03-26T16:17:27.705Z,100.00
2023-03-26T16:22:56.124Z,100.00
2023-03-26T16:28:09.687Z,100.00
2023-03-26T16:33:15.432Z,100.00
2023-03-26T16:38:18.447Z,100.00
2023-03-26T16:43:26.632Z,100.00
2023-03-26T16:48:46.868Z,100.00
2023-03-26T16:53:54.627Z,100.00
2023-03-26T16:59:06.705Z,100.00
2023-03-26T17:04:23.113Z,100.00
2023-03-26T17:09:24.632Z,100.00
2023-03-26T17:14:31.292Z,100.00
2023-03-26T17:19:41.856Z,100.00
2023-03-26T17:24:54.341Z,100.00
2023-03-26T17:30:00.328Z,100.00
2023-03-26T17:35:02.228Z,100.00
2023-03-26T17:40:12.237Z,100.00
2023-03-26T17:45:20.379Z,100.00
2023-03-26T17:50:27.464Z,100.00
2023-03-26T17:55:37.084Z,100.00
2023-03-26T18:00:43.015Z,100.00
2023-03-26T18:05:45.323Z,100.00
2023-03-26T18:11:03.455Z,100.00
2023-03-26T18:16:17.299Z,100.00
2023-03-26T18:21:24.967Z,100.00
2023-03-26T18:26:38.579Z,100.00
2023-03-26T18:31:43.212Z,100.00
2023-03-26T18:37:04.810Z,100.00
2023-03-26T18:42:06.670Z,100.00
2023-03-26T18:47:09.668Z,100.00
2023-03-26T18:52:16.820Z,100.00
2023-03-26T18:57:21.927Z,100.00
2023-03-26T19:02:25.156Z,100.00
2023-03-26T19:07:26.755Z,100.00
2023-03-26T19:12:29.805Z,100.00
2023-03-26T19:17:39.057Z,100.00
2023-03-26T19:22:42.340Z,100.00
2023-03-26T19:27:43.861Z,100.00
2023-03-26T19:32:52.318Z,100.00
2023-03-26T19:37:56.589Z,100.00
2023-03-26T19:42:58.225Z,100.00
2023-03-26T19:48:13.938Z,100.00
2023-03-26T19:53:24.100Z,100.00
2023-03-26T19:58:26.563Z,100.00
2023-03-26T20:03:29.902Z,100.00
2023-03-26T20:08:31.534Z,100.00
2023-03-26T20:13:32.886Z,100.00
2023-03-26T20:18:34.630Z,100.00
2023-03-26T20:23:35.966Z,100.00
2023-03-26T20:28:47.313Z,100.00
2023-03-26T20:33:52.129Z,100.00
2023-03-26T20:38:53.492Z,100.00
2023-03-26T20:43:54.863Z,100.00
2023-03-26T20:48:57.316Z,100.00
2023-03-26T20:53:58.758Z,100.00
2023-03-26T20:59:10.370Z,100.00
2023-03-26T21:04:12.946Z,100.00
2023-03-26T21:09:17.528Z,100.00
2023-03-26T21:14:22.422Z,100.00
2023-03-26T21:19:24.172Z,100.00
2023-03-26T21:24:33.192Z,100.00
2023-03-26T21:29:34.725Z,100.00
2023-03-26T21:34:39.643Z,100.00
2023-03-26T21:39:44.763Z,100.00
2023-03-26T21:44:46.199Z,100.00
2023-03-26T21:49:47.719Z,100.00
2023-03-26T21:54:49.190Z,100.00
2023-03-26T22:00:16.008Z,100.00
2023-03-26T22:05:18.480Z,100.00
2023-03-26T22:10:20.590Z,100.00
2023-03-26T22:15:22.090Z,100.00
2023-03-26T22:20:28.148Z,100.00
2023-03-26T22:25:29.468Z,100.00
2023-03-26T22:30:32.138Z,100.00
2023-03-26T22:35:33.535Z,100.00
2023-03-26T22:40:34.943Z,100.00
2023-03-26T22:45:37.738Z,100.00
2023-03-26T22:50:39.057Z,100.00
2023-03-26T22:55:40.368Z,100.00
2023-03-26T23:00:41.713Z,100.00
2023-03-26T23:05:43.185Z,100.00
2023-03-26T23:10:47.544Z,100.00
2023-03-26T23:15:49.908Z,100.00
2023-03-26T23:20:58.665Z,100.00
2023-03-26T23:26:04.600Z,99.85
2023-03-26T23:31:07.237Z,94.54
2023-03-26T23:36:09.194Z,93.32
2023-03-26T23:41:14.773Z,94.67
2023-03-26T23:46:17.918Z,92.98
2023-03-26T23:51:23.941Z,90.59
2023-03-26T23:56:30.129Z,92.09
